createdAt,value
2022-09-12T00:01:35.687Z,13.00
2022-09-12T00:04:03.837Z,13.00
2022-09-12T00:06:33.747Z,12.90
2022-09-12T00:09:04.051Z,12.90
2022-09-12T00:11:32.191Z,12.90
2022-09-12T00:14:02.534Z,12.90
2022-09-12T00:16:32.350Z,12.90
2022-09-12T00:19:01.963Z,12.80
2022-09-12T00:21:30.369Z,12.80
2022-09-12T00:23:58.344Z,12.80
2022-09-12T00:26:26.355Z,12.80
2022-09-12T00:28:54.325Z,12.70
2022-09-12T00:31:24.881Z,12.70
2022-09-12T00:33:53.304Z,12.70
2022-09-12T00:36:24.885Z,12.70
2022-09-12T00:38:54.424Z,12.70
2022-09-12T00:41:25.085Z,12.70
2022-09-12T00:43:55.021Z,12.60
2022-09-12T00:46:33.672Z,12.60
2022-09-12T00:49:04.805Z,12.60
2022-09-12T00:51:37.472Z,12.60
2022-09-12T00:54:10.582Z,12.60
2022-09-12T00:56:40.623Z,12.50
2022-09-12T00:59:13.509Z,12.50
2022-09-12T01:01:43.425Z,12.50
2022-09-12T01:04:12.757Z,12.50
2022-09-12T01:06:44.157Z,12.50
2022-09-12T01:09:16.889Z,12.50
2022-09-12T01:11:46.952Z,12.50
2022-09-12T01:14:15.603Z,12.50
2022-09-12T01:16:45.051Z,12.40
2022-09-12T01:19:39.460Z,12.40
2022-09-12T01:22:24.715Z,12.40
2022-09-12T01:25:00.107Z,12.40
2022-09-12T01:27:42.931Z,12.30
2022-09-12T01:30:40.528Z,12.30
2022-09-12T01:33:31.397Z,12.30
2022-09-12T01:36:12.524Z,12.20
2022-09-12T01:38:45.169Z,12.20
2022-09-12T01:41:22.099Z,12.20
2022-09-12T01:43:54.685Z,12.20
2022-09-12T01:46:29.608Z,12.10
2022-09-12T01:49:02.390Z,12.10
2022-09-12T01:51:35.752Z,12.10
2022-09-12T01:54:09.710Z,12.10
2022-09-12T01:56:41.265Z,12.10
2022-09-12T01:59:16.307Z,12.00
2022-09-12T02:01:51.068Z,12.00
2022-09-12T02:04:22.115Z,12.00
2022-09-12T02:06:54.037Z,11.90
2022-09-12T02:09:25.984Z,11.90
2022-09-12T02:11:58.231Z,11.90
2022-09-12T02:14:29.964Z,11.90
2022-09-12T02:17:03.293Z,11.90
2022-09-12T02:19:35.074Z,11.90
2022-09-12T02:22:05.697Z,11.90
2022-09-12T02:24:37.803Z,11.80
2022-09-12T02:27:10.800Z,11.80
2022-09-12T02:29:38.722Z,11.80
2022-09-12T02:32:17.094Z,11.80
2022-09-12T02:34:49.390Z,11.80
2022-09-12T02:37:50.333Z,11.80
2022-09-12T02:40:19.122Z,11.80
2022-09-12T02:42:47.145Z,11.80
2022-09-12T02:45:15.032Z,11.80
2022-09-12T02:47:48.516Z,11.80
2022-09-12T02:50:16.602Z,11.80
2022-09-12T02:52:45.380Z,11.80
2022-09-12T02:55:14.576Z,11.80
2022-09-12T02:57:42.385Z,11.80
2022-09-12T03:02:55.441Z,11.70
2022-09-12T03:05:28.509Z,11.70
2022-09-12T03:08:36.142Z,11.70
2022-09-12T03:11:28.273Z,11.70
2022-09-12T03:14:08.561Z,11.70
2022-09-12T03:16:43.488Z,11.70
2022-09-12T03:19:20.233Z,11.60
2022-09-12T03:21:57.850Z,11.60
2022-09-12T03:24:32.011Z,11.60
2022-09-12T03:27:06.360Z,11.60
2022-09-12T03:29:34.651Z,11.60
2022-09-12T03:32:02.690Z,11.60
2022-09-12T03:34:31.912Z,11.60
2022-09-12T03:36:59.849Z,11.60
2022-09-12T03:39:28.713Z,11.60
2022-09-12T03:41:56.905Z,11.60
2022-09-12T03:44:25.512Z,11.60
2022-09-12T03:46:53.395Z,11.60
2022-09-12T03:49:21.147Z,11.60
2022-09-12T03:51:50.253Z,11.60
2022-09-12T03:54:17.979Z,11.60
2022-09-12T03:56:45.726Z,11.60
2022-09-12T03:59:13.480Z,11.60
2022-09-12T04:01:42.192Z,11.50
2022-09-12T04:04:10.592Z,11.50
2022-09-12T04:06:38.329Z,11.50
2022-09-12T04:09:07.431Z,11.50
2022-09-12T04:11:35.765Z,11.50
2022-09-12T04:14:03.511Z,11.50
2022-09-12T04:16:32.200Z,11.50
2022-09-12T04:19:00.371Z,11.50
2022-09-12T04:21:28.276Z,11.50
2022-09-12T04:23:56.061Z,11.50
2022-09-12T04:26:25.145Z,11.50
2022-09-12T04:28:56.161Z,11.50
2022-09-12T04:31:24.269Z,11.50
2022-09-12T04:33:54.703Z,11.40
2022-09-12T04:36:23.234Z,11.50
2022-09-12T04:38:51.961Z,11.40
2022-09-12T04:41:22.974Z,11.40
2022-09-12T04:43:55.670Z,11.40
2022-09-12T04:46:23.409Z,11.50
2022-09-12T04:48:56.055Z,11.40
2022-09-12T04:51:27.685Z,11.40
2022-09-12T04:53:57.510Z,11.40
2022-09-12T04:56:26.286Z,11.40
2022-09-12T04:58:57.322Z,11.40
2022-09-12T05:01:25.144Z,11.40
2022-09-12T05:03:53.963Z,11.40
2022-09-12T05:06:23.832Z,11.40
2022-09-12T05:08:52.285Z,11.40
2022-09-12T05:11:25.392Z,11.40
2022-09-12T05:13:57.623Z,11.30
2022-09-12T05:16:27.194Z,11.30
2022-09-12T05:18:56.750Z,11.40
2022-09-12T05:21:24.579Z,11.30
2022-09-12T05:23:53.290Z,11.40
2022-09-12T05:26:21.806Z,11.40
2022-09-12T05:28:50.868Z,11.40
2022-09-12T05:31:22.141Z,11.40
2022-09-12T05:33:51.489Z,11.50
2022-09-12T05:36:20.814Z,11.50
2022-09-12T05:38:49.149Z,11.60
2022-09-12T05:41:22.985Z,11.60
2022-09-12T05:43:54.152Z,11.60
2022-09-12T05:46:25.149Z,11.70
2022-09-12T05:48:56.294Z,11.70
2022-09-12T05:51:26.726Z,11.80
2022-09-12T05:53:56.127Z,11.80
2022-09-12T05:56:26.563Z,11.90
2022-09-12T05:58:56.682Z,12.00
2022-09-12T06:01:27.103Z,12.00
2022-09-12T06:03:57.647Z,12.10
2022-09-12T06:06:27.262Z,12.10
2022-09-12T06:08:57.831Z,12.20
2022-09-12T06:11:28.583Z,12.30
2022-09-12T06:13:57.077Z,12.30
2022-09-12T06:16:28.459Z,12.40
2022-09-12T06:18:57.638Z,12.50
2022-09-12T06:21:27.078Z,12.60
2022-09-12T06:23:55.559Z,12.60
2022-09-12T06:26:25.735Z,12.70
2022-09-12T06:28:54.486Z,12.70
2022-09-12T06:31:25.048Z,12.80
2022-09-12T06:33:56.376Z,12.90
2022-09-12T06:36:26.773Z,12.90
2022-09-12T06:39:00.809Z,13.00
2022-09-12T06:41:31.130Z,13.10
2022-09-12T06:43:59.654Z,13.10
2022-09-12T06:46:56.475Z,13.20
2022-09-12T06:49:25.642Z,13.30
2022-09-12T06:51:53.386Z,13.30
2022-09-12T06:54:21.168Z,13.40
2022-09-12T06:56:48.924Z,13.50
2022-09-12T06:59:16.739Z,13.50
2022-09-12T07:01:44.529Z,13.60
2022-09-12T07:04:12.489Z,13.60
2022-09-12T07:06:44.477Z,13.70
2022-09-12T07:09:13.746Z,13.80
2022-09-12T07:11:43.108Z,13.90
2022-09-12T07:14:13.792Z,14.00
2022-09-12T07:16:41.708Z,14.00
2022-09-12T07:19:10.481Z,14.10
2022-09-12T07:21:39.985Z,14.20
2022-09-12T07:24:10.720Z,14.30
2022-09-12T07:26:40.112Z,14.40
2022-09-12T07:29:32.728Z,14.50
2022-09-12T07:31:56.939Z,14.50
2022-09-12T07:34:24.746Z,14.60
2022-09-12T07:36:52.528Z,14.70
2022-09-12T07:39:21.657Z,14.70
2022-09-12T07:41:49.512Z,14.80
2022-09-12T07:44:17.327Z,14.90
2022-09-12T07:46:45.096Z,15.00
2022-09-12T07:49:13.602Z,15.00
2022-09-12T07:51:41.430Z,15.10
2022-09-12T07:54:10.085Z,15.20
2022-09-12T07:56:40.735Z,15.30
2022-09-12T07:59:09.017Z,15.30
2022-09-12T08:01:36.867Z,15.40
2022-09-12T08:04:05.111Z,15.50
2022-09-12T08:06:35.792Z,15.60
2022-09-12T08:09:04.387Z,15.60
2022-09-12T08:11:32.240Z,15.70
2022-09-12T08:14:02.934Z,15.80
2022-09-12T08:16:32.128Z,15.90
2022-09-12T08:19:02.309Z,15.90
2022-09-12T08:21:32.095Z,16.00
2022-09-12T08:24:02.294Z,16.10
2022-09-12T08:26:30.521Z,16.20
2022-09-12T08:28:58.698Z,16.30
2022-09-12T08:31:28.914Z,16.30
2022-09-12T08:33:57.773Z,16.40
2022-09-12T08:36:26.744Z,16.50
2022-09-12T08:38:59.867Z,16.50
2022-09-12T08:41:31.636Z,16.60
2022-09-12T08:44:38.716Z,16.70
2022-09-12T08:47:21.876Z,16.70
2022-09-12T08:49:57.968Z,16.80
2022-09-12T08:52:30.677Z,16.80
2022-09-12T08:54:58.704Z,16.90
2022-09-12T08:57:26.625Z,17.00
2022-09-12T08:59:55.081Z,17.10
2022-09-12T09:03:09.593Z,17.20
2022-09-12T09:05:47.186Z,17.30
2022-09-12T09:08:32.866Z,17.40
2022-09-12T09:11:09.280Z,17.50
2022-09-12T09:14:07.567Z,17.60
2022-09-12T09:16:38.116Z,17.70
2022-09-12T09:19:13.865Z,17.80
2022-09-12T09:21:45.568Z,17.90
2022-09-12T09:24:18.847Z,18.00
2022-09-12T09:26:51.944Z,18.10
2022-09-12T09:29:21.725Z,18.20
2022-09-12T09:31:53.461Z,18.30
2022-09-12T09:34:24.686Z,18.40
2022-09-12T09:37:00.867Z,18.50
2022-09-12T09:39:43.786Z,18.50
2022-09-12T09:42:23.203Z,18.70
2022-09-12T09:44:54.826Z,18.80
2022-09-12T09:47:22.723Z,18.90
2022-09-12T09:49:52.062Z,19.00
2022-09-12T09:52:26.060Z,19.00
2022-09-12T09:54:58.429Z,19.10
2022-09-12T09:57:44.506Z,19.20
2022-09-12T10:00:25.896Z,19.30
2022-09-12T10:03:25.374Z,19.40
2022-09-12T10:05:57.011Z,19.50
2022-09-12T10:08:27.269Z,19.50
2022-09-12T10:10:56.483Z,19.70
2022-09-12T10:13:29.946Z,19.70
2022-09-12T10:16:00.535Z,19.80
2022-09-12T10:18:40.586Z,19.90
2022-09-12T10:21:18.831Z,20.00
2022-09-12T10:23:48.570Z,20.10
2022-09-12T10:26:18.681Z,20.20
2022-09-12T10:28:52.405Z,20.20
2022-09-12T10:31:29.051Z,20.30
2022-09-12T10:33:59.196Z,20.40
2022-09-12T10:36:37.449Z,20.50
2022-09-12T10:39:06.812Z,20.50
2022-09-12T10:41:38.777Z,20.60
2022-09-12T10:44:16.625Z,20.70
2022-09-12T10:46:44.536Z,20.80
2022-09-12T10:49:24.538Z,20.90
2022-09-12T10:51:55.168Z,21.00
2022-09-12T10:54:25.745Z,21.10
2022-09-12T10:57:21.026Z,21.20
2022-09-12T11:00:13.658Z,21.30
2022-09-12T11:03:00.065Z,21.40
2022-09-12T11:05:49.092Z,21.50
2022-09-12T11:08:50.072Z,21.60
2022-09-12T11:11:37.100Z,21.60
2022-09-12T11:14:19.112Z,21.60
2022-09-12T11:16:57.569Z,21.70
2022-09-12T11:19:50.918Z,21.80
2022-09-12T11:22:35.952Z,21.90
2022-09-12T11:25:24.672Z,22.00
2022-09-12T11:28:13.384Z,22.10
2022-09-12T11:30:48.899Z,22.20
2022-09-12T11:33:30.858Z,22.40
2022-09-12T11:36:00.328Z,22.50
2022-09-12T11:38:47.402Z,22.60
2022-09-12T11:41:23.900Z,22.70
2022-09-12T11:43:57.562Z,22.80
2022-09-12T11:46:33.626Z,22.80
2022-09-12T11:49:08.160Z,22.80
2022-09-12T11:51:48.163Z,22.90
2022-09-12T11:54:23.897Z,22.90
2022-09-12T11:57:02.274Z,22.90
2022-09-12T11:59:42.325Z,22.90
2022-09-12T12:02:15.122Z,22.90
2022-09-12T12:05:00.292Z,23.00
2022-09-12T12:07:30.410Z,23.00
2022-09-12T12:09:58.483Z,23.10
2022-09-12T12:12:29.944Z,23.20
2022-09-12T12:14:58.952Z,23.20
2022-09-12T12:17:29.565Z,23.20
2022-09-12T12:20:07.406Z,23.20
2022-09-12T12:22:36.340Z,23.20
2022-09-12T12:25:29.494Z,23.20
2022-09-12T12:28:01.674Z,23.30
2022-09-12T12:31:03.488Z,23.30
2022-09-12T12:33:55.490Z,23.20
2022-09-12T12:36:39.487Z,23.10
2022-09-12T12:39:40.690Z,23.00
2022-09-12T12:42:08.485Z,22.90
2022-09-12T12:44:51.539Z,23.00
2022-09-12T12:47:22.116Z,23.10
2022-09-12T12:49:57.417Z,23.10
2022-09-12T12:52:27.516Z,23.20
2022-09-12T12:54:58.346Z,23.30
2022-09-12T12:57:41.380Z,23.40
2022-09-12T13:00:31.966Z,23.50
2022-09-12T13:03:03.143Z,23.50
2022-09-12T13:05:39.358Z,23.50
2022-09-12T13:08:11.204Z,23.60
2022-09-12T13:10:39.868Z,23.60
2022-09-12T13:13:09.535Z,23.70
2022-09-12T13:15:52.495Z,23.70
2022-09-12T13:18:27.680Z,23.70
2022-09-12T13:21:09.197Z,23.80
2022-09-12T13:23:37.158Z,23.80
2022-09-12T13:26:11.437Z,23.80
2022-09-12T13:28:39.399Z,23.80
2022-09-12T13:31:17.959Z,23.90
2022-09-12T13:33:49.265Z,23.90
2022-09-12T13:36:45.755Z,23.90
2022-09-12T13:39:21.197Z,23.90
2022-09-12T13:42:30.720Z,23.90
2022-09-12T13:45:02.858Z,24.00
2022-09-12T13:47:36.720Z,24.00
2022-09-12T13:50:07.168Z,24.00
2022-09-12T13:52:38.600Z,24.00
2022-09-12T13:55:11.738Z,24.00
2022-09-12T13:57:41.281Z,24.00
2022-09-12T14:00:22.275Z,24.00
2022-09-12T14:03:12.015Z,24.00
2022-09-12T14:05:40.805Z,24.00
2022-09-12T14:08:10.107Z,24.00
2022-09-12T14:10:40.347Z,24.00
2022-09-12T14:13:14.792Z,24.00
2022-09-12T14:15:46.194Z,24.00
2022-09-12T14:18:24.938Z,24.00
2022-09-12T14:20:54.931Z,24.00
2022-09-12T14:23:28.419Z,24.10
2022-09-12T14:25:58.633Z,24.10
2022-09-12T14:28:29.626Z,24.10
2022-09-12T14:31:03.533Z,24.10
2022-09-12T14:33:35.652Z,24.10
2022-09-12T14:36:13.126Z,24.10
2022-09-12T14:38:44.177Z,24.10
2022-09-12T14:41:14.332Z,24.10
2022-09-12T14:43:45.995Z,24.10
2022-09-12T14:46:20.340Z,24.10
2022-09-12T14:48:52.922Z,24.00
2022-09-12T14:51:24.505Z,24.00
2022-09-12T14:53:52.421Z,24.00
2022-09-12T14:56:23.063Z,24.00
2022-09-12T14:58:51.659Z,24.00
2022-09-12T15:01:27.392Z,24.00
2022-09-12T15:03:57.729Z,24.00
2022-09-12T15:06:29.102Z,24.00
2022-09-12T15:08:58.921Z,24.00
2022-09-12T15:11:27.404Z,23.90
2022-09-12T15:13:55.182Z,23.90
2022-09-12T15:16:23.039Z,23.90
2022-09-12T15:18:50.788Z,23.80
2022-09-12T15:21:21.321Z,23.80
2022-09-12T15:23:50.632Z,23.80
2022-09-12T15:26:19.970Z,23.70
2022-09-12T15:28:47.850Z,23.70
2022-09-12T15:31:24.395Z,23.60
2022-09-12T15:33:52.501Z,23.60
2022-09-12T15:36:23.904Z,23.50
2022-09-12T15:38:52.618Z,23.50
2022-09-12T15:41:23.152Z,23.40
2022-09-12T15:43:51.410Z,23.30
2022-09-12T15:46:19.537Z,23.20
2022-09-12T15:48:47.544Z,23.20
2022-09-12T15:51:16.890Z,23.20
2022-09-12T15:53:47.331Z,23.10
2022-09-12T15:56:15.754Z,23.10
2022-09-12T15:58:57.809Z,23.00
2022-09-12T16:01:27.573Z,23.00
2022-09-12T16:03:55.695Z,22.90
2022-09-12T16:06:23.971Z,22.90
2022-09-12T16:08:53.018Z,22.90
2022-09-12T16:11:22.742Z,22.80
2022-09-12T16:13:50.590Z,22.80
2022-09-12T16:16:18.334Z,22.70
2022-09-12T16:18:46.169Z,22.70
2022-09-12T16:21:15.699Z,22.60
2022-09-12T16:23:44.065Z,22.60
2022-09-12T16:26:13.204Z,22.60
2022-09-12T16:28:41.390Z,22.60
2022-09-12T16:31:11.600Z,22.50
2022-09-12T16:33:40.416Z,22.50
2022-09-12T16:36:10.174Z,22.40
2022-09-12T16:38:41.994Z,22.40
2022-09-12T16:41:09.847Z,22.40
2022-09-12T16:43:39.047Z,22.30
2022-09-12T16:46:08.790Z,22.20
2022-09-12T16:48:37.825Z,22.20
2022-09-12T16:51:07.695Z,22.20
2022-09-12T16:53:37.051Z,22.20
2022-09-12T16:56:05.139Z,22.20
2022-09-12T16:58:37.437Z,22.10
2022-09-12T17:01:11.843Z,22.10
2022-09-12T17:03:39.879Z,22.00
2022-09-12T17:06:10.115Z,22.00
2022-09-12T17:08:39.669Z,22.00
2022-09-12T17:11:09.597Z,21.90
2022-09-12T17:14:00.504Z,21.90
2022-09-12T17:16:27.436Z,21.80
2022-09-12T17:18:55.703Z,21.70
2022-09-12T17:21:23.911Z,21.60
2022-09-12T17:23:51.644Z,21.60
2022-09-12T17:26:20.656Z,21.60
2022-09-12T17:28:48.619Z,21.50
2022-09-12T17:31:17.164Z,21.50
2022-09-12T17:33:46.336Z,21.40
2022-09-12T17:36:16.450Z,21.40
2022-09-12T17:38:46.080Z,21.40
2022-09-12T17:41:17.282Z,21.20
2022-09-12T17:43:45.938Z,21.20
2022-09-12T17:46:13.822Z,21.20
2022-09-12T17:48:41.646Z,21.10
2022-09-12T17:51:11.632Z,21.10
2022-09-12T17:53:39.349Z,21.00
2022-09-12T17:56:08.754Z,20.90
2022-09-12T17:58:37.233Z,20.80
2022-09-12T18:01:24.193Z,20.80
2022-09-12T18:03:55.285Z,20.70
2022-09-12T18:06:25.216Z,20.60
2022-09-12T18:08:52.965Z,20.60
2022-09-12T18:11:20.672Z,20.50
2022-09-12T18:13:48.436Z,20.50
2022-09-12T18:16:16.562Z,20.40
2022-09-12T18:18:44.334Z,20.40
2022-09-12T18:21:12.992Z,20.40
2022-09-12T18:23:42.102Z,20.30
2022-09-12T18:26:13.468Z,20.20
2022-09-12T18:28:43.167Z,20.20
2022-09-12T18:31:13.737Z,20.20
2022-09-12T18:33:42.057Z,20.10
2022-09-12T18:36:11.850Z,20.00
2022-09-12T18:38:40.413Z,20.00
2022-09-12T18:41:11.229Z,19.90
2022-09-12T18:43:39.341Z,19.90
2022-09-12T18:46:08.899Z,19.90
2022-09-12T18:48:37.201Z,19.80
2022-09-12T18:51:06.829Z,19.70
2022-09-12T18:53:35.072Z,19.70
2022-09-12T18:56:04.563Z,19.70
2022-09-12T18:58:33.625Z,19.60
2022-09-12T19:01:01.371Z,19.50
2022-09-12T19:03:29.450Z,19.50
2022-09-12T19:05:57.171Z,19.50
2022-09-12T19:08:24.933Z,19.40
2022-09-12T19:10:56.795Z,19.40
2022-09-12T19:13:24.695Z,19.30
2022-09-12T19:15:53.782Z,19.30
2022-09-12T19:18:21.544Z,19.30
2022-09-12T19:20:51.923Z,19.20
2022-09-12T19:23:20.129Z,19.20
2022-09-12T19:25:56.738Z,19.10
2022-09-12T19:28:24.874Z,19.10
2022-09-12T19:30:54.423Z,19.00
2022-09-12T19:33:23.026Z,19.00
2022-09-12T19:35:51.078Z,18.90
2022-09-12T19:38:19.579Z,18.90
2022-09-12T19:40:57.619Z,18.80
2022-09-12T19:43:25.574Z,18.90
2022-09-12T19:45:54.843Z,18.80
2022-09-12T19:48:22.834Z,18.70
2022-09-12T19:50:51.446Z,18.70
2022-09-12T19:53:19.897Z,18.60
2022-09-12T19:55:47.803Z,18.60
2022-09-12T19:58:16.257Z,18.50
2022-09-12T20:00:43.975Z,18.50
2022-09-12T20:03:13.023Z,18.50
2022-09-12T20:05:42.820Z,18.40
2022-09-12T20:08:10.722Z,18.40
2022-09-12T20:10:38.442Z,18.40
2022-09-12T20:13:07.043Z,18.40
2022-09-12T20:15:34.777Z,18.40
2022-09-12T20:18:02.477Z,18.40
2022-09-12T20:20:31.994Z,18.30
2022-09-12T20:22:59.721Z,18.30
2022-09-12T20:25:27.417Z,18.30
2022-09-12T20:27:59.959Z,18.30
2022-09-12T20:30:28.256Z,18.20
2022-09-12T20:32:55.981Z,18.20
2022-09-12T20:35:23.811Z,18.20
2022-09-12T20:37:52.863Z,18.10
2022-09-12T20:40:20.600Z,18.10
2022-09-12T20:42:48.337Z,18.00
2022-09-12T20:45:16.124Z,18.00
2022-09-12T20:47:43.838Z,17.90
2022-09-12T20:50:11.574Z,17.80
2022-09-12T20:52:39.303Z,17.90
2022-09-12T20:55:09.742Z,17.80
2022-09-12T20:57:37.458Z,17.80
2022-09-12T21:00:07.266Z,17.80
2022-09-12T21:02:35.080Z,17.70
2022-09-12T21:05:02.846Z,17.70
2022-09-12T21:07:31.746Z,17.70
2022-09-12T21:09:59.445Z,17.60
2022-09-12T21:12:29.657Z,17.60
2022-09-12T21:14:57.358Z,17.60
2022-09-12T21:17:25.105Z,17.60
2022-09-12T21:19:52.825Z,17.60
2022-09-12T21:22:20.536Z,17.60
2022-09-12T21:24:48.228Z,17.50
2022-09-12T21:27:15.914Z,17.50
2022-09-12T21:29:44.944Z,17.50
2022-09-12T21:32:14.323Z,17.50
2022-09-12T21:34:42.789Z,17.40
2022-09-12T21:37:10.474Z,17.40
2022-09-12T21:39:38.184Z,17.40
2022-09-12T21:42:05.969Z,17.40
2022-09-12T21:44:33.689Z,17.40
2022-09-12T21:47:02.723Z,17.40
2022-09-12T21:49:30.418Z,17.30
2022-09-12T21:51:58.091Z,17.30
2022-09-12T21:54:25.841Z,17.30
2022-09-12T21:56:53.818Z,17.30
2022-09-12T21:59:21.657Z,17.30
2022-09-12T22:01:49.449Z,17.30
2022-09-12T22:04:18.550Z,17.30
2022-09-12T22:06:46.235Z,17.30
2022-09-12T22:09:14.118Z,17.20
2022-09-12T22:11:41.855Z,17.20
2022-09-12T22:14:09.560Z,17.10
2022-09-12T22:16:37.330Z,17.20
2022-09-12T22:19:05.481Z,17.20
2022-09-12T22:21:34.562Z,17.10
2022-09-12T22:24:20.168Z,17.00
2022-09-12T22:26:47.888Z,17.00
2022-09-12T22:29:15.581Z,17.00
2022-09-12T22:31:43.548Z,17.00
2022-09-12T22:34:11.315Z,17.00
2022-09-12T22:36:40.822Z,17.00
2022-09-12T22:39:09.144Z,16.90
2022-09-12T22:41:36.971Z,16.90
2022-09-12T22:44:04.746Z,16.90
2022-09-12T22:46:32.504Z,16.90
2022-09-12T22:49:00.686Z,16.80
2022-09-12T22:51:28.682Z,16.80
2022-09-12T22:53:57.795Z,16.80
2022-09-12T22:56:25.657Z,16.70
2022-09-12T22:58:53.726Z,16.70
2022-09-12T23:01:21.406Z,16.60
2022-09-12T23:03:49.288Z,16.60
2022-09-12T23:06:17.118Z,16.60
2022-09-12T23:08:44.878Z,16.60
2022-09-12T23:11:16.590Z,16.50
2022-09-12T23:13:46.423Z,16.50
2022-09-12T23:16:17.106Z,16.40
2022-09-12T23:18:45.050Z,16.40
2022-09-12T23:21:14.550Z,16.30
2022-09-12T23:23:42.698Z,16.30
2022-09-12T23:26:14.076Z,16.30
2022-09-12T23:28:43.517Z,16.20
2022-09-12T23:31:11.529Z,16.20
2022-09-12T23:33:39.653Z,16.10
2022-09-12T23:36:11.290Z,16.10
2022-09-12T23:38:38.986Z,16.00
2022-09-12T23:41:07.615Z,16.00
2022-09-12T23:43:37.017Z,16.00
2022-09-12T23:46:05.465Z,16.00
2022-09-12T23:48:34.311Z,15.90
2022-09-12T23:51:03.459Z,15.90
2022-09-12T23:53:31.177Z,15.90
2022-09-12T23:55:59.509Z,15.90
2022-09-12T23:58:27.268Z,15.80
